Terminal Aerodrome Forecast
Issued by NWS

Home | Current Version | Previous Version | Graphics & Text | Print | Product List | Glossary On
Versions: 1 2 3 4 5 6 7 8 9 10 11 12 13 14
000
FTUS43 KBIS 202322
TAFJMS
TAF
KJMS 202322Z 2100/2124 10004KT P6SM SCT110
     FM210800 15006KT P6SM VCTS SCT090CB BKN120
     FM211500 18014G22KT P6SM SCT150
     FM211900 23012KT P6SM SCT200
     FM212200 30018G26KT P6SM FEW200=

USA.gov is the U.S. government's official web portal to all federal, state and local government web resources and services.